Terminal Aerodrome Forecast
Issued by NWS

Home | Current Version | Previous Version | Text Only | Print | Product List | Glossary Off
Versions: 1 2 3 4 5 6 7 8 9 10 11 12 13 14 15 16 17 18 19 20 21 22 23

000
FTUS43 KGRB 200900 AAB
TAFAUW
TAF AMD
KAUW 200951Z 2010/2106 22006KT P6SM SCT008 OVC012
      TEMPO 2010/2014 BKN008
     FM201400 26009G15KT P6SM BKN015
     FM201700 27011G18KT P6SM SCT025 SCT100
     FM210100 24003KT P6SM SCT025 BKN040
      TEMPO 2102/2106 4SM -SHRA BR BKN015=

USA.gov is the U.S. government's official web portal to all federal, state and local government web resources and services.